Time;durP1;ratioP1;P1;durP2;ratioP2;P2;SDS_P1;SDS_P2;PMS_P1;PMS_P2;Temp;Humidity;BMP_temperature;BMP_pressure;BME280_temperature;BME280_humidity;BME280_pressure;Samples;Min_cycle;Max_cycle;Signal;HPM_P1;HPM_P2
2021/12/21 00:00:43;;;;;;;13.43;6.60;;;1.40;99.90;;;;;;5036070;28;20392;-80
2021/12/21 00:03:27;;;;;;;13.93;7.03;;;1.30;99.90;;;;;;5033108;28;20447;-79
2021/12/21 00:06:11;;;;;;;8.60;6.90;;;1.40;99.90;;;;;;5033577;28;20447;-80
2021/12/21 00:08:55;;;;;;;7.73;6.40;;;1.60;99.90;;;;;;5032734;28;20403;-79
2021/12/21 00:11:39;;;;;;;7.73;7.00;;;1.60;99.90;;;;;;5032826;28;20392;-80
2021/12/21 00:14:35;;;;;;;12.60;8.00;;;1.70;99.90;;;;;;5032698;28;20436;-80
2021/12/21 00:17:44;;;;;;;9.97;6.60;;;1.60;99.90;;;;;;5033011;28;20386;-80
2021/12/21 00:20:44;;;;;;;8.97;7.50;;;1.70;99.90;;;;;;5020492;28;20374;-80
2021/12/21 00:23:39;;;;;;;9.07;7.67;;;1.40;99.90;;;;;;5032994;28;20466;-79
2021/12/21 00:26:23;;;;;;;11.67;7.00;;;1.30;99.90;;;;;;5032799;28;20394;-80
2021/12/21 00:29:07;;;;;;;9.10;5.43;;;1.30;99.90;;;;;;5032471;28;20398;-79
2021/12/21 00:31:52;;;;;;;9.83;5.33;;;1.30;99.90;;;;;;5031667;28;20423;-80
2021/12/21 00:34:37;;;;;;;7.13;6.43;;;1.20;99.90;;;;;;5032226;28;20391;-80
2021/12/21 00:37:22;;;;;;;11.40;6.53;;;1.10;99.90;;;;;;5032731;28;20362;-79
2021/12/21 00:40:08;;;;;;;11.53;6.70;;;1.20;99.90;;;;;;5032991;28;20464;-80
2021/12/21 00:42:52;;;;;;;12.13;5.30;;;1.30;99.90;;;;;;5031899;28;20522;-80
2021/12/21 00:45:36;;;;;;;12.23;6.43;;;1.40;99.90;;;;;;5031916;28;20439;-80
2021/12/21 00:48:27;;;;;;;6.90;5.73;;;1.50;99.90;;;;;;5031729;28;20417;-79
2021/12/21 00:51:11;;;;;;;8.87;5.97;;;1.40;99.90;;;;;;5031993;28;20389;-79
2021/12/21 00:53:56;;;;;;;10.57;6.23;;;1.30;99.90;;;;;;5031820;28;20399;-79
2021/12/21 00:56:40;;;;;;;10.43;6.07;;;1.30;99.90;;;;;;5031722;28;20415;-79
2021/12/21 00:59:25;;;;;;;7.80;4.90;;;1.30;99.90;;;;;;5030910;28;20382;-80
2021/12/21 01:02:09;;;;;;;8.87;6.03;;;1.10;99.90;;;;;;5031358;28;20418;-79
2021/12/21 01:04:56;;;;;;;6.73;5.37;;;0.90;99.90;;;;;;5034490;28;20439;-79
2021/12/21 01:07:43;;;;;;;9.10;6.63;;;1.10;99.90;;;;;;5035195;28;20388;-79
2021/12/21 01:13:58;;;;;;;20.53;5.70;;;1.00;99.90;;;;;;5021470;28;20417;-79
2021/12/21 01:16:44;;;;;;;7.00;5.57;;;0.80;99.90;;;;;;5031698;28;20412;-80
2021/12/21 01:19:35;;;;;;;11.20;6.37;;;0.90;99.90;;;;;;5031525;28;20388;-79
2021/12/21 01:22:35;;;;;;;6.70;6.03;;;1.00;99.90;;;;;;5031303;28;20593;-79
2021/12/21 01:25:34;;;;;;;7.23;5.60;;;1.10;99.90;;;;;;5006809;28;20365;-79
2021/12/21 01:28:31;;;;;;;7.47;4.90;;;1.00;99.90;;;;;;5030807;28;20411;-80
2021/12/21 01:31:24;;;;;;;9.87;8.13;;;1.00;99.90;;;;;;5031035;28;20457;-80
2021/12/21 01:34:25;;;;;;;10.60;5.50;;;1.00;99.90;;;;;;5030528;28;20382;-80
2021/12/21 01:40:19;;;;;;;8.73;5.63;;;1.10;99.90;;;;;;5031365;28;20416;-79
2021/12/21 01:43:17;;;;;;;8.80;6.53;;;1.20;99.90;;;;;;5031120;28;20559;-79
2021/12/21 01:52:09;;;;;;;7.43;6.40;;;1.10;99.90;;;;;;5030477;28;20429;-79
2021/12/21 01:54:54;;;;;;;5.97;4.87;;;1.00;99.90;;;;;;5030940;28;20430;-79
2021/12/21 01:57:38;;;;;;;9.50;5.90;;;1.00;99.90;;;;;;5031290;28;20393;-79
2021/12/21 02:00:22;;;;;;;13.17;5.80;;;0.90;99.90;;;;;;5030422;28;20388;-80
2021/12/21 02:03:07;;;;;;;8.20;4.40;;;0.90;99.90;;;;;;5031309;28;20612;-79
2021/12/21 02:05:51;;;;;;;11.07;6.07;;;0.90;99.90;;;;;;5031285;28;20442;-80
2021/12/21 02:08:36;;;;;;;7.03;5.27;;;0.90;99.90;;;;;;5031235;28;20473;-80
2021/12/21 02:11:21;;;;;;;8.73;4.63;;;0.90;99.90;;;;;;5031824;28;20363;-79
2021/12/21 02:14:09;;;;;;;11.13;5.23;;;0.80;99.90;;;;;;5031807;28;20399;-80
2021/12/21 02:17:10;;;;;;;5.73;5.23;;;0.80;99.90;;;;;;5031792;28;20377;-79
2021/12/21 02:20:17;;;;;;;9.50;4.90;;;0.80;99.90;;;;;;5030645;28;20446;-80
2021/12/21 02:31:55;;;;;;;13.23;5.73;;;0.80;99.90;;;;;;5017791;28;20423;-79
2021/12/21 02:34:44;;;;;;;13.37;5.13;;;0.80;99.90;;;;;;5030596;28;20403;-79
2021/12/21 02:37:28;;;;;;;6.80;4.83;;;0.70;99.90;;;;;;5033000;28;20407;-80
2021/12/21 02:40:13;;;;;;;9.73;4.83;;;0.80;99.90;;;;;;5015091;28;20451;-80
2021/12/21 02:42:57;;;;;;;12.17;6.10;;;0.80;99.90;;;;;;5033584;28;20559;-80
2021/12/21 02:45:42;;;;;;;9.47;8.10;;;0.80;99.90;;;;;;5034409;28;20373;-79
2021/12/21 02:48:26;;;;;;;15.97;7.33;;;0.70;99.90;;;;;;5019406;28;20367;-79
2021/12/21 02:51:10;;;;;;;5.80;4.20;;;0.80;99.90;;;;;;5033324;28;20411;-80
2021/12/21 02:53:54;;;;;;;6.40;5.40;;;0.70;99.90;;;;;;5034154;28;20454;-80
2021/12/21 02:56:38;;;;;;;6.97;4.90;;;0.60;99.90;;;;;;5033689;28;20400;-79
2021/12/21 02:59:23;;;;;;;5.97;5.30;;;0.60;99.90;;;;;;5033868;28;20446;-79
2021/12/21 03:02:07;;;;;;;9.30;6.00;;;0.60;99.90;;;;;;5034388;28;20396;-79
2021/12/21 03:04:51;;;;;;;14.53;6.53;;;0.70;99.90;;;;;;5033790;28;20485;-79
2021/12/21 03:10:48;;;;;;;12.67;5.53;;;0.70;99.90;;;;;;5022026;28;20891;-80
2021/12/21 03:16:31;;;;;;;6.10;5.60;;;0.70;99.90;;;;;;5033997;28;20406;-79
2021/12/21 03:19:15;;;;;;;9.27;5.13;;;0.60;99.90;;;;;;5034627;28;20880;-79
2021/12/21 03:21:59;;;;;;;13.40;7.13;;;0.50;99.90;;;;;;5034520;28;20432;-80
2021/12/21 03:24:44;;;;;;;8.43;6.17;;;0.50;99.90;;;;;;5034976;28;20414;-79
2021/12/21 03:27:28;;;;;;;7.53;5.63;;;0.50;99.90;;;;;;5034680;28;20386;-79
2021/12/21 03:30:15;;;;;;;8.50;6.80;;;0.50;99.90;;;;;;5034586;28;20445;-80
2021/12/21 03:32:59;;;;;;;8.00;7.13;;;0.40;99.90;;;;;;5033808;28;20374;-79
2021/12/21 03:35:43;;;;;;;7.53;5.10;;;0.50;99.90;;;;;;5034161;28;20370;-80
2021/12/21 03:38:28;;;;;;;7.50;5.13;;;0.30;99.90;;;;;;5033762;28;20390;-80
2021/12/21 03:41:15;;;;;;;12.73;6.70;;;0.30;99.90;;;;;;5029685;28;20430;-79
2021/12/21 03:44:02;;;;;;;8.30;6.53;;;0.30;99.90;;;;;;5031228;28;20447;-81
2021/12/21 03:46:50;;;;;;;9.90;5.97;;;0.30;99.90;;;;;;5032379;28;20370;-80
2021/12/21 03:52:39;;;;;;;8.30;4.43;;;0.40;99.90;;;;;;5021926;28;20410;-80
2021/12/21 03:55:24;;;;;;;9.90;4.60;;;0.40;99.90;;;;;;5034365;28;20400;-80
2021/12/21 03:58:08;;;;;;;6.60;5.07;;;0.40;99.90;;;;;;5034317;28;20392;-80
2021/12/21 04:00:52;;;;;;;5.07;4.60;;;0.40;99.90;;;;;;5019342;28;20410;-80
2021/12/21 04:03:36;;;;;;;9.13;5.83;;;0.30;99.90;;;;;;5033845;28;20490;-79
2021/12/21 04:06:20;;;;;;;5.53;4.80;;;0.40;99.90;;;;;;5030924;28;20392;-80
2021/12/21 04:09:06;;;;;;;13.03;5.70;;;0.40;99.90;;;;;;5032871;28;20476;-80
2021/12/21 04:11:51;;;;;;;5.77;4.80;;;0.30;99.90;;;;;;5033166;28;20395;-80
2021/12/21 04:14:36;;;;;;;5.80;4.57;;;0.30;99.90;;;;;;5032990;28;20387;-80
2021/12/21 04:17:23;;;;;;;5.73;4.80;;;0.30;99.90;;;;;;5032533;28;20389;-80
2021/12/21 04:20:08;;;;;;;17.00;5.47;;;0.30;99.90;;;;;;5032593;28;20404;-80
2021/12/21 04:22:52;;;;;;;9.30;5.30;;;0.30;99.90;;;;;;5032810;28;20819;-80
2021/12/21 04:25:36;;;;;;;21.03;7.70;;;0.30;99.90;;;;;;5033182;28;20396;-80
2021/12/21 04:28:20;;;;;;;6.13;4.33;;;0.30;99.90;;;;;;5032438;28;20442;-80
2021/12/21 04:31:07;;;;;;;18.43;7.40;;;0.30;99.90;;;;;;5032662;28;20439;-80
2021/12/21 04:33:52;;;;;;;4.47;4.07;;;0.30;99.90;;;;;;5032370;28;20391;-79
2021/12/21 04:36:37;;;;;;;7.77;4.37;;;0.30;99.90;;;;;;5032488;28;20400;-79
2021/12/21 04:39:33;;;;;;;7.10;4.53;;;0.30;99.90;;;;;;5032757;28;20395;-80
2021/12/21 04:42:17;;;;;;;6.13;4.80;;;0.20;99.90;;;;;;5033135;28;20490;-80
2021/12/21 04:45:01;;;;;;;4.40;4.00;;;0.10;99.90;;;;;;5033294;28;20366;-80
2021/12/21 04:47:45;;;;;;;5.73;5.20;;;0.00;99.90;;;;;;5030934;28;20403;-79
2021/12/21 04:50:30;;;;;;;3.93;3.63;;;0.00;99.90;;;;;;5032092;28;20395;-80
2021/12/21 04:53:14;;;;;;;5.00;4.60;;;0.00;99.90;;;;;;5031636;28;20394;-79
2021/12/21 04:55:58;;;;;;;6.93;4.50;;;0.00;99.90;;;;;;5017099;28;20399;-80
2021/12/21 04:58:42;;;;;;;6.13;4.97;;;0.00;99.90;;;;;;5031800;28;20435;-79
2021/12/21 05:01:26;;;;;;;6.93;6.23;;;-0.10;99.90;;;;;;5031771;28;20395;-80
2021/12/21 05:04:10;;;;;;;8.50;4.60;;;-0.10;99.90;;;;;;5030939;28;20449;-79
2021/12/21 05:06:55;;;;;;;5.53;4.07;;;-0.10;99.90;;;;;;5031661;28;20500;-79
2021/12/21 05:09:42;;;;;;;5.43;3.80;;;-0.10;99.90;;;;;;5032179;28;20403;-79
2021/12/21 05:12:26;;;;;;;10.13;5.30;;;0.00;99.90;;;;;;5032442;28;20400;-80
2021/12/21 05:15:11;;;;;;;8.00;5.67;;;0.00;99.90;;;;;;5002961;28;20398;-79
2021/12/21 05:17:55;;;;;;;9.50;5.50;;;0.00;99.90;;;;;;5016818;28;20408;-80
2021/12/21 05:20:40;;;;;;;4.87;3.20;;;0.00;99.90;;;;;;5031300;28;20458;-79
2021/12/21 05:23:25;;;;;;;14.43;5.63;;;-0.10;99.90;;;;;;5031421;28;20941;-79
2021/12/21 05:26:09;;;;;;;5.60;4.00;;;0.00;99.90;;;;;;5031244;28;20480;-79
2021/12/21 05:28:53;;;;;;;5.83;4.30;;;-0.10;99.90;;;;;;5031034;28;20422;-79
2021/12/21 05:31:38;;;;;;;12.03;5.43;;;-0.10;99.90;;;;;;5030980;28;20435;-80
2021/12/21 05:34:22;;;;;;;8.73;5.77;;;-0.10;99.90;;;;;;5034540;28;20407;-79
2021/12/21 05:37:07;;;;;;;11.30;5.70;;;-0.20;99.90;;;;;;5034439;28;20415;-80
2021/12/21 05:39:59;;;;;;;13.93;7.10;;;-0.20;99.90;;;;;;5031119;28;20457;-79
2021/12/21 05:42:46;;;;;;;7.20;6.50;;;-0.20;99.90;;;;;;5030224;28;20532;-79
2021/12/21 05:45:30;;;;;;;9.68;8.23;;;-0.20;99.90;;;;;;5031556;28;20413;-79
2021/12/21 05:48:14;;;;;;;12.40;6.07;;;-0.30;99.90;;;;;;5030977;28;20164;-80
2021/12/21 05:50:59;;;;;;;5.50;4.87;;;-0.30;99.90;;;;;;5030150;28;20399;-79
2021/12/21 05:53:43;;;;;;;8.97;4.50;;;-0.30;99.90;;;;;;5031426;28;20419;-79
2021/12/21 05:56:27;;;;;;;7.40;5.27;;;-0.20;99.90;;;;;;5016105;28;20491;-79
2021/12/21 05:59:11;;;;;;;6.33;4.67;;;-0.20;99.90;;;;;;5030455;28;20755;-80
2021/12/21 06:01:55;;;;;;;7.43;5.57;;;-0.30;99.90;;;;;;5030877;28;20403;-80
2021/12/21 06:04:40;;;;;;;8.70;5.20;;;-0.20;99.90;;;;;;5031469;28;20381;-80
2021/12/21 06:07:24;;;;;;;4.03;3.57;;;-0.60;99.90;;;;;;5031812;28;20392;-80
2021/12/21 06:10:14;;;;;;;7.33;4.10;;;-0.60;99.90;;;;;;5031246;28;20376;-79
2021/12/21 06:13:48;;;;;;;8.30;4.90;;;-0.50;99.90;;;;;;5026685;28;20424;-80
2021/12/21 06:16:25;;;;;;;9.00;6.00;;;-0.40;99.90;;;;;;5030406;28;20403;-80
2021/12/21 06:28:17;;;;;;;4.20;3.90;;;-1.10;99.90;;;;;;5020845;28;20433;-80
2021/12/21 06:31:01;;;;;;;4.60;4.00;;;-1.00;99.90;;;;;;5031960;28;20461;-80
2021/12/21 06:33:46;;;;;;;4.60;4.17;;;-0.60;99.90;;;;;;5019930;28;20408;-80
2021/12/21 06:36:30;;;;;;;10.10;3.90;;;-0.60;99.90;;;;;;5017213;28;20808;-80
2021/12/21 06:39:14;;;;;;;4.20;3.40;;;-0.50;99.90;;;;;;5022816;28;20386;-79
2021/12/21 06:41:59;;;;;;;3.27;2.97;;;-0.40;99.90;;;;;;5029816;28;20493;-80
2021/12/21 06:44:45;;;;;;;5.83;4.40;;;-0.30;99.90;;;;;;5032045;28;20413;-80
2021/12/21 06:53:21;;;;;;;3.23;3.03;;;-0.20;99.90;;;;;;5022461;28;20398;-80
2021/12/21 06:56:07;;;;;;;7.87;3.90;;;-0.20;99.90;;;;;;5026605;28;20402;-80
2021/12/21 06:58:54;;;;;;;4.93;4.53;;;-0.30;99.90;;;;;;5012778;28;20394;-80
2021/12/21 07:01:39;;;;;;;8.83;5.30;;;-0.30;99.90;;;;;;5017294;28;20430;-80
2021/12/21 07:04:24;;;;;;;5.40;4.37;;;-0.40;99.90;;;;;;5024655;28;20436;-80
2021/12/21 07:07:10;;;;;;;9.10;3.50;;;-0.40;99.90;;;;;;5023882;28;20404;-80
2021/12/21 07:10:00;;;;;;;5.40;4.87;;;-0.40;99.90;;;;;;5022018;28;20419;-80
2021/12/21 07:18:05;;;;;;;5.70;4.60;;;-0.40;99.90;;;;;;5018747;28;20960;-80
2021/12/21 07:18:51;;;;;;;5.43;4.63;;;-0.40;99.90;;;;;;5004410;28;20584;-80
2021/12/21 07:21:37;;;;;;;8.50;4.17;;;-0.40;99.90;;;;;;5024513;28;20486;-80
2021/12/21 07:24:23;;;;;;;6.50;5.10;;;-0.40;99.90;;;;;;5021118;28;20922;-80
2021/12/21 07:27:07;;;;;;;6.33;5.07;;;-0.40;99.90;;;;;;5026182;28;20811;-79
2021/12/21 07:29:51;;;;;;;5.13;4.53;;;-0.30;99.90;;;;;;5025289;28;20407;-80
2021/12/21 07:32:36;;;;;;;10.00;6.67;;;-0.40;99.90;;;;;;5027700;28;20425;-80
2021/12/21 07:35:21;;;;;;;5.00;4.53;;;-0.40;99.90;;;;;;5026624;28;20443;-79
2021/12/21 07:38:06;;;;;;;5.73;5.23;;;-0.30;99.90;;;;;;5023130;28;20440;-80
2021/12/21 07:40:50;;;;;;;15.77;5.43;;;-0.20;99.90;;;;;;5026047;28;20399;-79
2021/12/21 07:43:34;;;;;;;6.97;5.07;;;-0.20;99.90;;;;;;5026441;28;20470;-80
2021/12/21 07:46:18;;;;;;;8.17;6.10;;;-0.30;99.90;;;;;;5026847;28;20522;-80
2021/12/21 07:49:03;;;;;;;10.27;5.87;;;-0.40;99.90;;;;;;5013602;28;20404;-80
2021/12/21 07:51:48;;;;;;;10.53;5.00;;;-0.40;99.90;;;;;;5023182;28;20413;-79
2021/12/21 07:54:34;;;;;;;7.20;5.23;;;-0.40;99.90;;;;;;5007205;28;20428;-80
2021/12/21 07:57:18;;;;;;;6.37;4.60;;;-0.50;99.90;;;;;;5011010;28;20525;-78
2021/12/21 08:00:04;;;;;;;14.70;6.70;;;-0.40;99.90;;;;;;5016037;28;20502;-79
2021/12/21 08:02:48;;;;;;;8.60;4.67;;;-0.30;99.90;;;;;;5022364;28;20463;-79
2021/12/21 08:05:34;;;;;;;10.50;9.50;;;-0.30;99.90;;;;;;5021751;28;20431;-79
2021/12/21 08:08:21;;;;;;;5.90;5.30;;;-0.20;99.90;;;;;;5021638;28;20467;-80
2021/12/21 08:11:27;;;;;;;18.00;12.10;;;0.30;99.90;;;;;;5026842;28;20515;-79
2021/12/21 08:14:10;;;;;;;11.83;7.20;;;1.20;99.90;;;;;;5012186;28;20665;-79
2021/12/21 08:16:55;;;;;;;10.83;7.43;;;1.60;99.90;;;;;;5004639;28;20467;-79
2021/12/21 08:19:39;;;;;;;5.33;4.50;;;1.60;99.90;;;;;;5017016;28;20391;-79
2021/12/21 08:22:23;;;;;;;13.23;8.70;;;1.80;99.90;;;;;;5013879;28;20498;-80
2021/12/21 08:25:08;;;;;;;8.30;6.27;;;2.10;99.90;;;;;;5014768;28;20424;-79
2021/12/21 08:27:52;;;;;;;8.57;6.00;;;2.70;99.90;;;;;;5022299;28;20424;-80
2021/12/21 08:30:37;;;;;;;7.83;6.33;;;3.30;99.90;;;;;;5015404;28;20432;-80
2021/12/21 08:33:21;;;;;;;8.30;6.07;;;3.30;99.90;;;;;;4988610;28;20398;-80
2021/12/21 08:36:07;;;;;;;10.10;8.27;;;3.30;99.90;;;;;;5031185;28;20926;-80
2021/12/21 08:38:51;;;;;;;8.03;6.50;;;3.60;99.90;;;;;;5016080;28;20499;-78
2021/12/21 08:41:41;;;;;;;8.97;4.97;;;3.90;99.90;;;;;;5000256;28;20470;-78
2021/12/21 08:44:26;;;;;;;10.93;8.47;;;4.00;99.90;;;;;;5022207;28;20749;-78
2021/12/21 08:47:12;;;;;;;11.23;7.13;;;4.30;99.90;;;;;;5015020;28;20428;-80
2021/12/21 08:49:56;;;;;;;11.53;6.43;;;4.50;99.90;;;;;;5017677;28;20436;-80
2021/12/21 08:52:41;;;;;;;11.90;5.53;;;4.80;99.90;;;;;;5019431;28;20951;-80
2021/12/21 08:55:25;;;;;;;13.43;7.10;;;5.20;99.90;;;;;;5005910;28;20436;-80
2021/12/21 08:58:11;;;;;;;13.50;5.83;;;5.50;99.90;;;;;;5017893;28;20445;-80
2021/12/21 09:00:56;;;;;;;8.43;6.10;;;6.20;99.90;;;;;;4974080;28;20847;-81
2021/12/21 09:03:40;;;;;;;5.23;4.77;;;7.20;99.90;;;;;;5017072;28;20438;-81
2021/12/21 09:06:24;;;;;;;11.47;6.67;;;8.00;99.90;;;;;;5020028;28;20415;-81
2021/12/21 09:09:09;;;;;;;11.23;7.83;;;8.70;99.90;;;;;;5025635;28;20437;-80
2021/12/21 09:11:53;;;;;;;15.80;7.50;;;9.30;99.90;;;;;;5015788;28;20434;-81
2021/12/21 09:14:37;;;;;;;8.20;6.23;;;9.80;99.90;;;;;;5014564;28;20200;-81
2021/12/21 09:17:21;;;;;;;16.93;7.60;;;10.20;99.90;;;;;;5016088;28;20492;-81
2021/12/21 09:20:07;;;;;;;10.47;7.77;;;10.40;99.90;;;;;;4988876;28;20445;-78
2021/12/21 09:22:52;;;;;;;12.13;8.50;;;10.50;99.90;;;;;;5015857;28;20460;-80
2021/12/21 09:25:37;;;;;;;13.00;8.83;;;10.70;99.90;;;;;;5010375;28;20420;-81
2021/12/21 09:28:21;;;;;;;8.10;6.80;;;10.90;99.90;;;;;;5011333;28;20403;-80
2021/12/21 09:31:05;;;;;;;15.50;7.97;;;11.00;99.90;;;;;;5003339;28;20610;-81
2021/12/21 09:33:49;;;;;;;9.07;6.00;;;10.70;99.90;;;;;;5012382;28;20420;-80
2021/12/21 09:36:34;;;;;;;11.43;6.37;;;10.70;99.90;;;;;;5011158;28;20398;-81
2021/12/21 09:39:19;;;;;;;10.87;5.43;;;10.70;99.90;;;;;;5020466;28;20916;-80
2021/12/21 09:42:04;;;;;;;5.30;4.90;;;10.20;99.90;;;;;;5000633;28;20446;-80
2021/12/21 09:44:49;;;;;;;8.03;6.20;;;9.40;99.90;;;;;;5027163;28;20402;-80
2021/12/21 09:47:34;;;;;;;6.03;4.13;;;9.40;99.90;;;;;;5022549;28;20398;-80
2021/12/21 09:50:21;;;;;;;8.03;5.33;;;9.30;99.90;;;;;;5019458;28;20395;-81
2021/12/21 09:53:06;;;;;;;7.80;5.50;;;9.70;99.90;;;;;;5016526;28;20397;-80
2021/12/21 09:55:51;;;;;;;7.37;5.57;;;10.30;99.90;;;;;;5019027;28;20431;-80
2021/12/21 09:58:36;;;;;;;7.03;5.63;;;10.80;99.90;;;;;;5013961;28;20453;-80
2021/12/21 10:01:21;;;;;;;8.77;6.60;;;11.70;99.90;;;;;;5022489;28;20451;-80
2021/12/21 10:04:07;;;;;;;14.07;6.23;;;11.50;99.90;;;;;;5011861;28;20475;-80
2021/12/21 10:06:54;;;;;;;7.73;5.27;;;12.20;99.00;;;;;;5020850;28;20440;-81
2021/12/21 10:09:43;;;;;;;8.87;6.60;;;12.70;97.30;;;;;;5012299;28;20517;-79
2021/12/21 10:12:31;;;;;;;8.77;6.50;;;12.60;97.30;;;;;;5004643;28;20431;-81
2021/12/21 10:15:21;;;;;;;8.47;5.97;;;12.50;96.20;;;;;;5000086;28;20454;-81
2021/12/21 10:18:06;;;;;;;7.47;6.27;;;13.00;95.10;;;;;;5016699;28;20447;-81
2021/12/21 10:20:52;;;;;;;8.00;6.60;;;13.50;94.50;;;;;;5023365;28;20431;-80
2021/12/21 10:23:40;;;;;;;9.07;6.43;;;13.60;93.30;;;;;;5017346;28;20472;-79
2021/12/21 10:26:29;;;;;;;9.70;5.97;;;13.10;93.70;;;;;;5002870;28;20447;-78
2021/12/21 10:29:15;;;;;;;11.20;7.03;;;13.40;93.80;;;;;;4996139;28;20444;-81
2021/12/21 10:32:00;;;;;;;8.40;5.90;;;11.90;95.00;;;;;;5015791;28;20455;-78
2021/12/21 10:34:57;;;;;;;8.13;7.30;;;12.70;93.50;;;;;;5017551;28;20543;-79
2021/12/21 10:37:43;;;;;;;10.88;7.10;;;11.70;96.10;;;;;;5018334;28;20383;-78
2021/12/21 10:40:28;;;;;;;11.60;7.43;;;11.50;98.30;;;;;;5004246;28;20184;-80
2021/12/21 10:43:13;;;;;;;13.63;8.37;;;11.10;98.50;;;;;;5019429;28;20487;-80
2021/12/21 10:45:59;;;;;;;11.40;7.67;;;12.50;97.10;;;;;;5017126;28;20489;-80
2021/12/21 10:48:46;;;;;;;15.60;7.70;;;11.50;97.40;;;;;;5014664;28;20494;-80
2021/12/21 10:51:31;;;;;;;8.00;6.20;;;11.00;98.50;;;;;;5014353;28;20433;-79
2021/12/21 10:54:27;;;;;;;9.53;6.43;;;11.30;98.50;;;;;;5011363;28;20440;-78
2021/12/21 10:57:23;;;;;;;9.43;6.10;;;12.00;97.70;;;;;;5019865;28;20463;-80
2021/12/21 11:00:14;;;;;;;8.23;6.30;;;12.10;96.20;;;;;;5021911;28;20456;-79
2021/12/21 11:02:59;;;;;;;12.53;6.27;;;13.40;93.70;;;;;;5016908;28;20462;-81
2021/12/21 11:05:45;;;;;;;8.20;6.67;;;12.50;94.30;;;;;;5016466;28;20417;-81
2021/12/21 11:08:36;;;;;;;7.30;6.33;;;11.90;96.90;;;;;;5017230;28;20522;-81
2021/12/21 11:11:29;;;;;;;14.40;8.17;;;12.50;96.70;;;;;;5019486;28;20770;-81
2021/12/21 11:14:18;;;;;;;10.73;7.10;;;13.40;92.20;;;;;;5018367;28;20908;-79
2021/12/21 11:17:05;;;;;;;8.37;7.27;;;12.60;94.90;;;;;;5010817;28;20450;-79
2021/12/21 11:19:51;;;;;;;9.47;7.33;;;12.10;95.30;;;;;;5009057;28;20490;-78
2021/12/21 11:22:39;;;;;;;10.50;7.13;;;12.40;95.60;;;;;;5008074;28;20501;-80
2021/12/21 11:25:24;;;;;;;7.67;6.17;;;12.20;95.20;;;;;;5001280;28;20427;-81
2021/12/21 11:28:13;;;;;;;7.03;6.20;;;14.10;91.70;;;;;;5017304;28;20415;-80
2021/12/21 11:30:59;;;;;;;6.87;5.87;;;12.90;94.40;;;;;;4999337;28;20414;-79
2021/12/21 11:33:48;;;;;;;8.10;6.90;;;15.10;91.70;;;;;;5011857;28;20483;-80
2021/12/21 11:39:31;;;;;;;8.77;7.27;;;16.60;88.30;;;;;;5018204;28;20420;-79
2021/12/21 11:42:28;;;;;;;10.97;7.67;;;16.70;85.60;;;;;;5012250;28;20554;-79
2021/12/21 11:45:21;;;;;;;7.77;5.10;;;16.00;88.10;;;;;;4989431;28;20411;-79
2021/12/21 11:48:31;;;;;;;7.10;6.40;;;17.70;82.60;;;;;;5015292;28;20447;-80
2021/12/21 11:51:16;;;;;;;7.47;6.53;;;17.70;79.60;;;;;;5010923;28;20445;-78
2021/12/21 11:54:01;;;;;;;8.00;7.13;;;17.40;79.80;;;;;;5012227;28;20477;-78
2021/12/21 11:56:46;;;;;;;7.20;6.50;;;17.50;76.60;;;;;;4991268;28;20440;-79
2021/12/21 11:59:30;;;;;;;10.50;6.37;;;17.20;80.80;;;;;;5017638;28;20422;-79
2021/12/21 12:02:26;;;;;;;11.43;7.60;;;16.40;82.20;;;;;;4983462;28;20424;-79
2021/12/21 12:05:22;;;;;;;7.67;6.97;;;16.60;78.20;;;;;;5020941;28;20427;-78
2021/12/21 12:08:11;;;;;;;9.87;6.93;;;16.20;80.40;;;;;;5004802;28;20550;-78
2021/12/21 12:10:58;;;;;;;9.77;6.73;;;16.20;82.80;;;;;;5015796;28;20448;-79
2021/12/21 12:13:43;;;;;;;11.20;7.57;;;16.40;79.70;;;;;;5014462;28;20475;-79
2021/12/21 12:16:40;;;;;;;11.27;8.00;;;16.20;81.20;;;;;;5024688;28;20427;-78
2021/12/21 12:19:43;;;;;;;13.13;9.60;;;17.40;77.10;;;;;;5015685;28;20424;-80
2021/12/21 12:22:38;;;;;;;16.33;9.63;;;15.40;78.70;;;;;;5023649;28;20471;-79
2021/12/21 12:25:26;;;;;;;8.97;6.33;;;15.70;80.10;;;;;;5011860;28;20439;-78
2021/12/21 12:28:21;;;;;;;9.17;7.20;;;15.60;78.80;;;;;;5013948;28;20464;-79
2021/12/21 12:31:07;;;;;;;9.60;7.87;;;14.00;80.20;;;;;;5020018;28;21003;-81
2021/12/21 12:33:52;;;;;;;9.77;8.10;;;13.80;82.90;;;;;;5005060;28;20436;-78
2021/12/21 12:36:50;;;;;;;9.97;8.23;;;13.70;83.90;;;;;;5019771;28;20439;-79
2021/12/21 12:39:41;;;;;;;11.13;8.57;;;13.40;83.00;;;;;;5024206;28;20456;-77
2021/12/21 12:42:28;;;;;;;7.27;6.13;;;11.60;89.60;;;;;;5004394;28;20463;-79
2021/12/21 12:45:18;;;;;;;8.47;6.40;;;11.70;88.80;;;;;;5015044;28;20423;-80
2021/12/21 12:48:05;;;;;;;7.20;6.10;;;11.00;90.70;;;;;;5017199;28;20440;-78
2021/12/21 12:50:52;;;;;;;14.93;6.83;;;10.00;91.80;;;;;;5013574;28;20447;-78
2021/12/21 12:53:42;;;;;;;16.63;7.20;;;9.40;96.50;;;;;;5021869;28;20420;-80
2021/12/21 12:56:27;;;;;;;10.63;7.50;;;9.20;99.90;;;;;;5015939;28;20864;-80
2021/12/21 12:59:11;;;;;;;17.63;9.77;;;8.50;99.90;;;;;;5010191;28;20440;-80
2021/12/21 13:01:59;;;;;;;11.43;7.83;;;8.20;99.90;;;;;;5017335;28;21024;-80
2021/12/21 13:04:43;;;;;;;9.07;6.80;;;8.10;99.90;;;;;;5016008;28;20436;-80
2021/12/21 13:07:28;;;;;;;9.33;6.90;;;8.00;99.90;;;;;;5019800;28;20832;-81
2021/12/21 13:10:13;;;;;;;9.97;6.73;;;7.80;99.90;;;;;;4998883;28;20435;-80
2021/12/21 13:13:03;;;;;;;10.00;6.67;;;7.60;99.90;;;;;;5020531;28;20410;-80
2021/12/21 13:15:51;;;;;;;7.70;5.97;;;7.30;99.90;;;;;;5005647;28;20434;-81
2021/12/21 13:18:54;;;;;;;8.23;5.97;;;7.10;99.90;;;;;;5016396;28;20516;-80
2021/12/21 13:21:47;;;;;;;8.20;6.07;;;6.80;99.90;;;;;;5026474;28;20463;-80
2021/12/21 13:24:35;;;;;;;7.73;6.63;;;6.70;99.90;;;;;;5018221;28;20431;-78
2021/12/21 13:27:24;;;;;;;8.60;6.60;;;6.60;99.90;;;;;;5017902;28;20515;-80
2021/12/21 13:30:09;;;;;;;10.43;6.57;;;6.60;99.90;;;;;;5016690;28;20422;-81
2021/12/21 13:32:57;;;;;;;6.30;5.10;;;6.60;99.90;;;;;;5018818;28;20434;-80
2021/12/21 13:35:43;;;;;;;6.67;5.90;;;6.60;99.90;;;;;;5015565;28;20538;-77
2021/12/21 13:38:28;;;;;;;10.07;6.27;;;6.40;99.90;;;;;;5000002;28;20503;-81
2021/12/21 13:41:15;;;;;;;7.13;6.00;;;6.40;99.90;;;;;;5015612;28;20514;-80
2021/12/21 13:44:10;;;;;;;8.20;6.20;;;6.30;99.90;;;;;;5016277;28;20449;-79
2021/12/21 13:47:00;;;;;;;7.03;6.20;;;6.30;99.90;;;;;;5017569;28;20497;-79
2021/12/21 13:49:57;;;;;;;7.50;6.17;;;6.30;99.90;;;;;;5013013;28;20406;-79
2021/12/21 13:52:45;;;;;;;8.73;5.17;;;6.30;99.90;;;;;;5017456;28;20423;-78
2021/12/21 13:55:37;;;;;;;7.43;5.20;;;6.30;99.90;;;;;;5018694;28;20414;-79
2021/12/21 13:58:21;;;;;;;6.83;5.37;;;6.20;99.90;;;;;;5000458;28;20842;-81
2021/12/21 14:01:06;;;;;;;9.40;7.20;;;6.20;99.90;;;;;;5002198;28;21091;-80
2021/12/21 14:03:56;;;;;;;8.10;6.20;;;6.30;99.90;;;;;;5010647;28;20414;-80
2021/12/21 14:06:44;;;;;;;7.07;6.00;;;6.00;99.90;;;;;;5004493;28;20483;-79
2021/12/21 14:09:28;;;;;;;13.73;6.93;;;6.00;99.90;;;;;;5018774;28;20475;-80
2021/12/21 14:12:13;;;;;;;12.53;6.23;;;6.10;99.90;;;;;;5008895;28;20402;-79
2021/12/21 14:14:58;;;;;;;10.33;5.70;;;6.00;99.90;;;;;;4985665;28;20518;-78
2021/12/21 14:17:43;;;;;;;10.30;5.57;;;5.70;99.90;;;;;;5004776;28;20999;-81
2021/12/21 14:20:28;;;;;;;9.90;5.27;;;5.80;99.90;;;;;;5004478;28;20426;-79
2021/12/21 14:23:18;;;;;;;10.20;6.60;;;5.90;99.90;;;;;;4977837;28;20518;-81
2021/12/21 14:26:07;;;;;;;13.33;6.70;;;5.80;99.90;;;;;;5002313;28;20550;-80
2021/12/21 14:29:02;;;;;;;12.97;6.10;;;5.90;99.90;;;;;;4990786;28;20449;-80
2021/12/21 14:31:59;;;;;;;6.30;5.70;;;5.90;99.90;;;;;;5008350;28;20720;-80
2021/12/21 14:34:47;;;;;;;6.70;5.97;;;5.60;99.90;;;;;;5001587;28;20462;-80
2021/12/21 14:37:31;;;;;;;7.13;5.10;;;5.50;99.90;;;;;;5005302;28;20462;-80
2021/12/21 14:40:18;;;;;;;6.17;5.30;;;5.40;99.90;;;;;;5004887;28;20401;-80
2021/12/21 14:43:04;;;;;;;8.23;6.07;;;5.30;99.90;;;;;;5004138;28;20554;-79
2021/12/21 14:45:48;;;;;;;5.70;4.80;;;5.40;99.90;;;;;;5004704;28;20511;-79
2021/12/21 14:48:33;;;;;;;6.67;5.43;;;5.50;99.90;;;;;;5008958;28;20385;-79
2021/12/21 14:51:18;;;;;;;9.70;7.30;;;5.30;99.90;;;;;;5005978;28;20378;-82
2021/12/21 14:54:04;;;;;;;10.23;8.40;;;5.20;99.90;;;;;;4977502;28;20474;-80
2021/12/21 14:56:49;;;;;;;7.17;6.13;;;5.20;99.90;;;;;;4999757;28;20496;-81
2021/12/21 14:59:36;;;;;;;7.93;5.57;;;5.30;99.90;;;;;;5008309;28;20398;-81
2021/12/21 15:02:49;;;;;;;5.60;5.10;;;5.10;99.90;;;;;;4990876;28;20406;-80
2021/12/21 15:05:30;;;;;;;6.93;6.23;;;5.10;99.90;;;;;;5005938;28;20431;-80
2021/12/21 15:08:20;;;;;;;9.23;6.80;;;5.00;99.90;;;;;;5014135;28;20403;-80
2021/12/21 15:11:04;;;;;;;9.07;6.33;;;4.90;99.90;;;;;;4986816;28;20915;-79
2021/12/21 15:13:49;;;;;;;10.17;7.47;;;4.90;99.90;;;;;;5014127;28;20456;-81
2021/12/21 15:16:34;;;;;;;11.47;6.33;;;4.60;99.90;;;;;;5010375;28;21065;-81
2021/12/21 15:19:18;;;;;;;10.83;9.73;;;4.60;99.90;;;;;;5002486;28;20463;-80
2021/12/21 15:22:03;;;;;;;11.10;7.70;;;4.80;99.90;;;;;;5022131;28;20457;-80
2021/12/21 15:24:48;;;;;;;14.70;9.53;;;4.70;99.90;;;;;;5021562;28;20427;-79